sensor_id;sensor_type;location;lat;lon;timestamp;temperature;humidity
19180;DHT22;9722;48.754;8.868;2023-08-20T00:00:37;20.60;99.90
19180;DHT22;9722;48.754;8.868;2023-08-20T00:03:58;20.60;99.90
19180;DHT22;9722;48.754;8.868;2023-08-20T00:07:19;20.60;99.90
19180;DHT22;9722;48.754;8.868;2023-08-20T00:10:39;20.50;99.90
19180;DHT22;9722;48.754;8.868;2023-08-20T00:14:00;20.60;99.90
19180;DHT22;9722;48.754;8.868;2023-08-20T00:17:21;20.50;99.90
19180;DHT22;9722;48.754;8.868;2023-08-20T00:20:42;20.50;99.90
19180;DHT22;9722;48.754;8.868;2023-08-20T00:24:03;20.50;99.90
19180;DHT22;9722;48.754;8.868;2023-08-20T00:27:23;20.50;99.90
19180;DHT22;9722;48.754;8.868;2023-08-20T00:30:44;20.50;99.90
19180;DHT22;9722;48.754;8.868;2023-08-20T00:34:05;20.50;99.90
19180;DHT22;9722;48.754;8.868;2023-08-20T00:37:25;20.50;99.90
19180;DHT22;9722;48.754;8.868;2023-08-20T00:40:46;20.50;99.90
19180;DHT22;9722;48.754;8.868;2023-08-20T00:44:06;20.40;99.90
19180;DHT22;9722;48.754;8.868;2023-08-20T00:47:27;20.40;99.90
19180;DHT22;9722;48.754;8.868;2023-08-20T00:50:48;20.40;99.90
19180;DHT22;9722;48.754;8.868;2023-08-20T00:54:10;20.40;99.90
19180;DHT22;9722;48.754;8.868;2023-08-20T00:57:30;20.30;99.90
19180;DHT22;9722;48.754;8.868;2023-08-20T01:00:51;20.30;99.90
19180;DHT22;9722;48.754;8.868;2023-08-20T01:04:11;20.20;99.90
19180;DHT22;9722;48.754;8.868;2023-08-20T01:11:09;20.20;99.90
19180;DHT22;9722;48.754;8.868;2023-08-20T01:14:30;20.20;99.90
19180;DHT22;9722;48.754;8.868;2023-08-20T01:17:51;20.20;99.90
19180;DHT22;9722;48.754;8.868;2023-08-20T01:21:29;20.20;99.90
19180;DHT22;9722;48.754;8.868;2023-08-20T01:25:00;20.30;99.90
19180;DHT22;9722;48.754;8.868;2023-08-20T01:28:28;20.20;99.90
19180;DHT22;9722;48.754;8.868;2023-08-20T01:31:49;20.30;99.90
19180;DHT22;9722;48.754;8.868;2023-08-20T01:35:13;20.20;99.90
19180;DHT22;9722;48.754;8.868;2023-08-20T01:38:34;20.20;99.90
19180;DHT22;9722;48.754;8.868;2023-08-20T01:41:54;20.20;99.90
19180;DHT22;9722;48.754;8.868;2023-08-20T01:45:15;20.20;99.90
19180;DHT22;9722;48.754;8.868;2023-08-20T01:48:36;20.20;99.90
19180;DHT22;9722;48.754;8.868;2023-08-20T01:51:56;20.10;99.90
19180;DHT22;9722;48.754;8.868;2023-08-20T01:55:17;20.00;99.90
19180;DHT22;9722;48.754;8.868;2023-08-20T01:58:37;20.00;99.90
19180;DHT22;9722;48.754;8.868;2023-08-20T02:01:58;19.90;99.90
19180;DHT22;9722;48.754;8.868;2023-08-20T02:05:18;19.90;99.90
19180;DHT22;9722;48.754;8.868;2023-08-20T02:08:39;19.90;99.90
19180;DHT22;9722;48.754;8.868;2023-08-20T02:11:59;19.80;99.90
19180;DHT22;9722;48.754;8.868;2023-08-20T02:15:20;19.80;99.90
19180;DHT22;9722;48.754;8.868;2023-08-20T02:18:40;19.80;99.90
19180;DHT22;9722;48.754;8.868;2023-08-20T02:22:01;19.80;99.90
19180;DHT22;9722;48.754;8.868;2023-08-20T02:25:22;19.70;99.90
19180;DHT22;9722;48.754;8.868;2023-08-20T02:28:43;19.70;99.90
19180;DHT22;9722;48.754;8.868;2023-08-20T02:32:03;19.70;99.90
19180;DHT22;9722;48.754;8.868;2023-08-20T02:35:24;19.70;99.90
19180;DHT22;9722;48.754;8.868;2023-08-20T02:38:45;19.70;99.90
19180;DHT22;9722;48.754;8.868;2023-08-20T02:42:06;19.70;99.90
19180;DHT22;9722;48.754;8.868;2023-08-20T02:45:26;19.70;99.90
19180;DHT22;9722;48.754;8.868;2023-08-20T02:48:47;19.70;99.90
19180;DHT22;9722;48.754;8.868;2023-08-20T02:52:07;19.60;99.90
19180;DHT22;9722;48.754;8.868;2023-08-20T02:55:28;19.60;99.90
19180;DHT22;9722;48.754;8.868;2023-08-20T02:58:48;19.50;99.90
19180;DHT22;9722;48.754;8.868;2023-08-20T03:02:09;19.40;99.90
19180;DHT22;9722;48.754;8.868;2023-08-20T03:05:29;19.30;99.90
19180;DHT22;9722;48.754;8.868;2023-08-20T03:08:50;19.20;99.90
19180;DHT22;9722;48.754;8.868;2023-08-20T03:12:10;19.10;99.90
19180;DHT22;9722;48.754;8.868;2023-08-20T03:15:31;19.10;99.90
19180;DHT22;9722;48.754;8.868;2023-08-20T03:18:51;19.00;99.90
19180;DHT22;9722;48.754;8.868;2023-08-20T03:22:11;19.00;99.90
19180;DHT22;9722;48.754;8.868;2023-08-20T03:25:32;18.90;99.90
19180;DHT22;9722;48.754;8.868;2023-08-20T03:28:52;18.90;99.90
19180;DHT22;9722;48.754;8.868;2023-08-20T03:32:13;18.80;99.90
19180;DHT22;9722;48.754;8.868;2023-08-20T03:35:33;18.80;99.90
19180;DHT22;9722;48.754;8.868;2023-08-20T03:38:54;18.80;99.90
19180;DHT22;9722;48.754;8.868;2023-08-20T03:42:14;18.80;99.90
19180;DHT22;9722;48.754;8.868;2023-08-20T03:45:34;18.80;99.90
19180;DHT22;9722;48.754;8.868;2023-08-20T03:48:55;18.80;99.90
19180;DHT22;9722;48.754;8.868;2023-08-20T03:52:15;18.70;99.90
19180;DHT22;9722;48.754;8.868;2023-08-20T03:55:36;18.70;99.90
19180;DHT22;9722;48.754;8.868;2023-08-20T03:58:56;18.60;99.90
19180;DHT22;9722;48.754;8.868;2023-08-20T04:02:17;18.60;99.90
19180;DHT22;9722;48.754;8.868;2023-08-20T04:05:37;18.60;99.90
19180;DHT22;9722;48.754;8.868;2023-08-20T04:08:58;18.50;99.90
19180;DHT22;9722;48.754;8.868;2023-08-20T04:12:18;18.50;99.90
19180;DHT22;9722;48.754;8.868;2023-08-20T04:15:39;18.50;99.90
19180;DHT22;9722;48.754;8.868;2023-08-20T04:18:59;18.50;99.90
19180;DHT22;9722;48.754;8.868;2023-08-20T04:22:20;18.50;99.90
19180;DHT22;9722;48.754;8.868;2023-08-20T04:25:40;18.50;99.90
19180;DHT22;9722;48.754;8.868;2023-08-20T04:29:01;18.50;99.90
19180;DHT22;9722;48.754;8.868;2023-08-20T04:32:22;18.50;99.90
19180;DHT22;9722;48.754;8.868;2023-08-20T04:35:42;18.50;99.90
19180;DHT22;9722;48.754;8.868;2023-08-20T04:39:03;18.60;99.90
19180;DHT22;9722;48.754;8.868;2023-08-20T04:42:24;18.50;99.90
19180;DHT22;9722;48.754;8.868;2023-08-20T04:45:45;18.60;99.90
19180;DHT22;9722;48.754;8.868;2023-08-20T04:49:05;18.60;99.90
19180;DHT22;9722;48.754;8.868;2023-08-20T04:52:26;18.60;99.90
19180;DHT22;9722;48.754;8.868;2023-08-20T04:55:46;18.70;99.90
19180;DHT22;9722;48.754;8.868;2023-08-20T04:59:06;18.80;99.90
19180;DHT22;9722;48.754;8.868;2023-08-20T05:02:27;18.80;99.90
19180;DHT22;9722;48.754;8.868;2023-08-20T05:05:48;18.80;99.90
19180;DHT22;9722;48.754;8.868;2023-08-20T05:09:08;18.90;99.90
19180;DHT22;9722;48.754;8.868;2023-08-20T05:12:29;19.00;99.90
19180;DHT22;9722;48.754;8.868;2023-08-20T05:15:49;19.10;99.90
19180;DHT22;9722;48.754;8.868;2023-08-20T05:19:10;19.20;99.90
19180;DHT22;9722;48.754;8.868;2023-08-20T05:22:30;19.20;99.90
19180;DHT22;9722;48.754;8.868;2023-08-20T05:25:51;19.40;99.90
19180;DHT22;9722;48.754;8.868;2023-08-20T05:29:11;19.50;99.90
19180;DHT22;9722;48.754;8.868;2023-08-20T05:32:31;19.70;99.90
19180;DHT22;9722;48.754;8.868;2023-08-20T05:35:52;20.00;99.90
19180;DHT22;9722;48.754;8.868;2023-08-20T05:39:12;20.20;99.90
19180;DHT22;9722;48.754;8.868;2023-08-20T05:42:33;20.60;99.90
19180;DHT22;9722;48.754;8.868;2023-08-20T05:45:53;20.90;99.90
19180;DHT22;9722;48.754;8.868;2023-08-20T05:49:14;21.40;99.90
19180;DHT22;9722;48.754;8.868;2023-08-20T05:52:36;21.70;99.90
19180;DHT22;9722;48.754;8.868;2023-08-20T05:55:56;22.20;99.90
19180;DHT22;9722;48.754;8.868;2023-08-20T05:59:16;22.50;99.90
19180;DHT22;9722;48.754;8.868;2023-08-20T06:02:37;22.60;99.90
19180;DHT22;9722;48.754;8.868;2023-08-20T06:05:57;22.60;99.90
19180;DHT22;9722;48.754;8.868;2023-08-20T06:09:18;22.60;99.90
19180;DHT22;9722;48.754;8.868;2023-08-20T06:12:39;22.50;99.90
19180;DHT22;9722;48.754;8.868;2023-08-20T06:15:59;22.40;99.90
19180;DHT22;9722;48.754;8.868;2023-08-20T06:19:20;22.40;99.90
19180;DHT22;9722;48.754;8.868;2023-08-20T06:22:40;22.60;99.90
19180;DHT22;9722;48.754;8.868;2023-08-20T06:26:01;23.40;99.90
19180;DHT22;9722;48.754;8.868;2023-08-20T06:29:21;24.20;99.90
19180;DHT22;9722;48.754;8.868;2023-08-20T06:32:46;24.70;99.90
19180;DHT22;9722;48.754;8.868;2023-08-20T06:36:06;24.90;99.90
19180;DHT22;9722;48.754;8.868;2023-08-20T06:39:27;25.20;99.60
19180;DHT22;9722;48.754;8.868;2023-08-20T06:42:47;25.60;98.60
19180;DHT22;9722;48.754;8.868;2023-08-20T06:46:08;25.80;97.90
19180;DHT22;9722;48.754;8.868;2023-08-20T06:49:29;25.80;97.50
19180;DHT22;9722;48.754;8.868;2023-08-20T06:52:50;25.90;97.40
19180;DHT22;9722;48.754;8.868;2023-08-20T06:56:11;25.90;97.10
19180;DHT22;9722;48.754;8.868;2023-08-20T06:59:31;26.00;97.10
19180;DHT22;9722;48.754;8.868;2023-08-20T07:02:52;26.00;96.90
19180;DHT22;9722;48.754;8.868;2023-08-20T07:06:12;26.20;96.90
19180;DHT22;9722;48.754;8.868;2023-08-20T07:09:35;26.60;96.10
19180;DHT22;9722;48.754;8.868;2023-08-20T07:12:56;27.20;94.80
19180;DHT22;9722;48.754;8.868;2023-08-20T07:16:16;27.80;93.70
19180;DHT22;9722;48.754;8.868;2023-08-20T07:19:37;28.70;92.10
19180;DHT22;9722;48.754;8.868;2023-08-20T07:22:58;29.30;90.30
19180;DHT22;9722;48.754;8.868;2023-08-20T07:26:18;29.50;88.50
19180;DHT22;9722;48.754;8.868;2023-08-20T07:29:41;30.10;85.60
19180;DHT22;9722;48.754;8.868;2023-08-20T07:33:02;30.80;82.50
19180;DHT22;9722;48.754;8.868;2023-08-20T07:36:24;31.70;79.20
19180;DHT22;9722;48.754;8.868;2023-08-20T07:39:45;32.30;75.20
19180;DHT22;9722;48.754;8.868;2023-08-20T07:43:05;33.00;72.10
19180;DHT22;9722;48.754;8.868;2023-08-20T07:46:26;33.80;68.70
19180;DHT22;9722;48.754;8.868;2023-08-20T07:49:46;34.60;64.60
19180;DHT22;9722;48.754;8.868;2023-08-20T07:53:07;34.60;62.70
19180;DHT22;9722;48.754;8.868;2023-08-20T07:56:27;34.40;62.50
19180;DHT22;9722;48.754;8.868;2023-08-20T07:59:48;34.00;62.80
19180;DHT22;9722;48.754;8.868;2023-08-20T08:03:09;33.60;63.50
19180;DHT22;9722;48.754;8.868;2023-08-20T08:06:30;33.40;63.40
19180;DHT22;9722;48.754;8.868;2023-08-20T08:09:50;33.70;63.40
19180;DHT22;9722;48.754;8.868;2023-08-20T08:13:12;34.60;61.00
19180;DHT22;9722;48.754;8.868;2023-08-20T08:16:32;35.60;59.20
19180;DHT22;9722;48.754;8.868;2023-08-20T08:19:53;36.30;57.10
19180;DHT22;9722;48.754;8.868;2023-08-20T08:23:15;37.00;55.50
19180;DHT22;9722;48.754;8.868;2023-08-20T08:26:36;37.60;54.40
19180;DHT22;9722;48.754;8.868;2023-08-20T08:29:57;38.20;53.00
19180;DHT22;9722;48.754;8.868;2023-08-20T08:33:18;38.70;51.40
19180;DHT22;9722;48.754;8.868;2023-08-20T08:36:38;39.00;51.00
19180;DHT22;9722;48.754;8.868;2023-08-20T08:39:59;39.30;50.00
19180;DHT22;9722;48.754;8.868;2023-08-20T08:43:20;39.70;49.60
19180;DHT22;9722;48.754;8.868;2023-08-20T08:46:40;40.40;48.40
19180;DHT22;9722;48.754;8.868;2023-08-20T08:50:01;40.80;47.60
19180;DHT22;9722;48.754;8.868;2023-08-20T08:53:24;41.10;46.50
19180;DHT22;9722;48.754;8.868;2023-08-20T08:56:45;41.40;45.80
19180;DHT22;9722;48.754;8.868;2023-08-20T09:00:05;41.60;45.30
19180;DHT22;9722;48.754;8.868;2023-08-20T09:03:26;41.90;45.20
19180;DHT22;9722;48.754;8.868;2023-08-20T09:06:51;42.10;44.80
19180;DHT22;9722;48.754;8.868;2023-08-20T09:10:12;42.60;44.10
19180;DHT22;9722;48.754;8.868;2023-08-20T09:17:03;43.30;42.30
19180;DHT22;9722;48.754;8.868;2023-08-20T09:20:37;43.70;41.90
19180;DHT22;9722;48.754;8.868;2023-08-20T09:23:57;43.90;41.60
19180;DHT22;9722;48.754;8.868;2023-08-20T09:27:18;44.10;41.00
19180;DHT22;9722;48.754;8.868;2023-08-20T09:30:38;44.30;40.50
19180;DHT22;9722;48.754;8.868;2023-08-20T09:34:02;44.40;40.80
19180;DHT22;9722;48.754;8.868;2023-08-20T09:37:24;44.80;40.10
19180;DHT22;9722;48.754;8.868;2023-08-20T09:40:46;45.00;40.20
19180;DHT22;9722;48.754;8.868;2023-08-20T09:44:08;45.20;38.70
19180;DHT22;9722;48.754;8.868;2023-08-20T09:47:29;45.20;38.30
19180;DHT22;9722;48.754;8.868;2023-08-20T09:50:53;45.10;38.20
19180;DHT22;9722;48.754;8.868;2023-08-20T09:54:28;45.30;37.60
19180;DHT22;9722;48.754;8.868;2023-08-20T09:57:53;45.70;37.20
19180;DHT22;9722;48.754;8.868;2023-08-20T10:01:14;45.90;37.00
19180;DHT22;9722;48.754;8.868;2023-08-20T10:04:35;46.30;35.60
19180;DHT22;9722;48.754;8.868;2023-08-20T10:07:55;46.40;35.00
19180;DHT22;9722;48.754;8.868;2023-08-20T10:11:16;46.60;34.80
19180;DHT22;9722;48.754;8.868;2023-08-20T10:14:37;46.60;34.50
19180;DHT22;9722;48.754;8.868;2023-08-20T10:17:58;46.90;34.50
19180;DHT22;9722;48.754;8.868;2023-08-20T10:21:23;47.30;33.80
19180;DHT22;9722;48.754;8.868;2023-08-20T10:24:52;47.50;32.80
19180;DHT22;9722;48.754;8.868;2023-08-20T10:28:21;47.70;32.70
19180;DHT22;9722;48.754;8.868;2023-08-20T10:31:47;47.80;33.00
19180;DHT22;9722;48.754;8.868;2023-08-20T10:35:08;48.00;32.80
19180;DHT22;9722;48.754;8.868;2023-08-20T10:38:35;48.30;32.40
19180;DHT22;9722;48.754;8.868;2023-08-20T10:42:10;48.50;31.80
19180;DHT22;9722;48.754;8.868;2023-08-20T10:45:43;48.60;31.70
19180;DHT22;9722;48.754;8.868;2023-08-20T10:49:04;48.80;32.10
19180;DHT22;9722;48.754;8.868;2023-08-20T10:52:26;48.90;32.20
19180;DHT22;9722;48.754;8.868;2023-08-20T10:55:50;49.30;31.70
19180;DHT22;9722;48.754;8.868;2023-08-20T10:59:21;49.50;31.00
19180;DHT22;9722;48.754;8.868;2023-08-20T11:02:42;49.70;30.70
19180;DHT22;9722;48.754;8.868;2023-08-20T11:06:03;49.90;30.60
19180;DHT22;9722;48.754;8.868;2023-08-20T11:09:25;49.90;30.20
19180;DHT22;9722;48.754;8.868;2023-08-20T11:12:46;50.00;30.20
19180;DHT22;9722;48.754;8.868;2023-08-20T11:16:07;50.20;29.80
19180;DHT22;9722;48.754;8.868;2023-08-20T11:19:28;50.40;29.80
19180;DHT22;9722;48.754;8.868;2023-08-20T11:22:48;50.70;29.90
19180;DHT22;9722;48.754;8.868;2023-08-20T11:26:09;50.70;29.30
19180;DHT22;9722;48.754;8.868;2023-08-20T11:29:29;50.80;29.30
19180;DHT22;9722;48.754;8.868;2023-08-20T11:32:51;50.90;28.90
19180;DHT22;9722;48.754;8.868;2023-08-20T11:36:15;51.00;28.80
19180;DHT22;9722;48.754;8.868;2023-08-20T11:39:37;51.00;29.10
19180;DHT22;9722;48.754;8.868;2023-08-20T11:42:57;51.10;29.10
19180;DHT22;9722;48.754;8.868;2023-08-20T11:46:20;51.20;28.80
19180;DHT22;9722;48.754;8.868;2023-08-20T11:49:41;51.20;28.90
19180;DHT22;9722;48.754;8.868;2023-08-20T11:53:01;51.30;28.70
19180;DHT22;9722;48.754;8.868;2023-08-20T11:56:23;51.30;28.60
19180;DHT22;9722;48.754;8.868;2023-08-20T11:59:44;51.30;28.70
19180;DHT22;9722;48.754;8.868;2023-08-20T12:03:04;51.20;28.90
19180;DHT22;9722;48.754;8.868;2023-08-20T12:06:25;50.90;29.50
19180;DHT22;9722;48.754;8.868;2023-08-20T12:09:50;50.70;29.50
19180;DHT22;9722;48.754;8.868;2023-08-20T12:13:11;50.10;29.50
19180;DHT22;9722;48.754;8.868;2023-08-20T12:16:31;49.60;29.80
19180;DHT22;9722;48.754;8.868;2023-08-20T12:19:52;49.40;30.10
19180;DHT22;9722;48.754;8.868;2023-08-20T12:23:12;49.70;30.00
19180;DHT22;9722;48.754;8.868;2023-08-20T12:26:33;50.10;29.70
19180;DHT22;9722;48.754;8.868;2023-08-20T12:29:53;50.30;29.30
19180;DHT22;9722;48.754;8.868;2023-08-20T12:33:14;50.60;29.20
19180;DHT22;9722;48.754;8.868;2023-08-20T12:36:34;50.70;28.90
19180;DHT22;9722;48.754;8.868;2023-08-20T12:39:55;51.00;28.80
19180;DHT22;9722;48.754;8.868;2023-08-20T12:43:16;51.10;28.80
19180;DHT22;9722;48.754;8.868;2023-08-20T12:46:36;51.20;28.70
19180;DHT22;9722;48.754;8.868;2023-08-20T12:49:57;51.40;28.50
19180;DHT22;9722;48.754;8.868;2023-08-20T12:53:17;51.30;28.80
19180;DHT22;9722;48.754;8.868;2023-08-20T12:56:38;51.40;28.90
19180;DHT22;9722;48.754;8.868;2023-08-20T12:59:58;51.50;28.40
19180;DHT22;9722;48.754;8.868;2023-08-20T13:03:19;51.60;28.20
19180;DHT22;9722;48.754;8.868;2023-08-20T13:06:40;51.60;27.90
19180;DHT22;9722;48.754;8.868;2023-08-20T13:10:01;51.60;28.10
19180;DHT22;9722;48.754;8.868;2023-08-20T13:13:23;51.50;28.00
19180;DHT22;9722;48.754;8.868;2023-08-20T13:16:44;51.60;28.10
19180;DHT22;9722;48.754;8.868;2023-08-20T13:20:05;51.60;28.30
19180;DHT22;9722;48.754;8.868;2023-08-20T13:23:25;51.60;28.10
19180;DHT22;9722;48.754;8.868;2023-08-20T13:26:46;51.50;28.40
19180;DHT22;9722;48.754;8.868;2023-08-20T13:30:07;51.60;28.40
19180;DHT22;9722;48.754;8.868;2023-08-20T13:33:28;51.70;28.20
19180;DHT22;9722;48.754;8.868;2023-08-20T13:36:49;51.60;28.20
19180;DHT22;9722;48.754;8.868;2023-08-20T13:40:10;51.40;28.10
19180;DHT22;9722;48.754;8.868;2023-08-20T13:43:30;50.90;28.30
19180;DHT22;9722;48.754;8.868;2023-08-20T13:46:51;50.10;28.60
19180;DHT22;9722;48.754;8.868;2023-08-20T13:50:11;49.50;29.00
19180;DHT22;9722;48.754;8.868;2023-08-20T13:53:32;49.20;29.80
19180;DHT22;9722;48.754;8.868;2023-08-20T13:56:52;48.30;29.90
19180;DHT22;9722;48.754;8.868;2023-08-20T14:00:13;47.10;30.50
19180;DHT22;9722;48.754;8.868;2023-08-20T14:03:34;45.40;32.30
19180;DHT22;9722;48.754;8.868;2023-08-20T14:06:55;43.80;33.90
19180;DHT22;9722;48.754;8.868;2023-08-20T14:10:16;42.40;35.90
19180;DHT22;9722;48.754;8.868;2023-08-20T14:13:36;41.60;36.80
19180;DHT22;9722;48.754;8.868;2023-08-20T14:16:57;41.10;37.40
19180;DHT22;9722;48.754;8.868;2023-08-20T14:20:17;40.60;37.90
19180;DHT22;9722;48.754;8.868;2023-08-20T14:23:38;39.90;38.90
19180;DHT22;9722;48.754;8.868;2023-08-20T14:26:58;39.30;39.90
19180;DHT22;9722;48.754;8.868;2023-08-20T14:30:19;38.70;40.50
19180;DHT22;9722;48.754;8.868;2023-08-20T14:33:39;38.20;41.60
19180;DHT22;9722;48.754;8.868;2023-08-20T14:37:00;37.80;42.90
19180;DHT22;9722;48.754;8.868;2023-08-20T14:40:20;37.50;44.00
19180;DHT22;9722;48.754;8.868;2023-08-20T14:43:41;37.30;44.40
19180;DHT22;9722;48.754;8.868;2023-08-20T14:47:02;37.20;45.10
19180;DHT22;9722;48.754;8.868;2023-08-20T14:50:25;37.20;45.60
19180;DHT22;9722;48.754;8.868;2023-08-20T14:53:45;37.30;45.70
19180;DHT22;9722;48.754;8.868;2023-08-20T14:57:05;37.30;45.10
19180;DHT22;9722;48.754;8.868;2023-08-20T15:00:26;37.20;45.10
19180;DHT22;9722;48.754;8.868;2023-08-20T15:03:46;37.10;45.80
19180;DHT22;9722;48.754;8.868;2023-08-20T15:07:07;37.00;46.10
19180;DHT22;9722;48.754;8.868;2023-08-20T15:10:28;36.90;46.00
19180;DHT22;9722;48.754;8.868;2023-08-20T15:13:48;36.60;46.40
19180;DHT22;9722;48.754;8.868;2023-08-20T15:17:09;36.40;47.10
19180;DHT22;9722;48.754;8.868;2023-08-20T15:20:29;36.30;47.10
19180;DHT22;9722;48.754;8.868;2023-08-20T15:23:50;36.10;47.30
19180;DHT22;9722;48.754;8.868;2023-08-20T15:27:10;35.80;47.10
19180;DHT22;9722;48.754;8.868;2023-08-20T15:30:31;35.60;47.20
19180;DHT22;9722;48.754;8.868;2023-08-20T15:33:51;35.40;47.40
19180;DHT22;9722;48.754;8.868;2023-08-20T15:37:12;35.10;47.70
19180;DHT22;9722;48.754;8.868;2023-08-20T15:40:33;34.90;48.00
19180;DHT22;9722;48.754;8.868;2023-08-20T15:43:53;34.70;48.50
19180;DHT22;9722;48.754;8.868;2023-08-20T15:47:14;34.70;48.60
19180;DHT22;9722;48.754;8.868;2023-08-20T15:50:35;34.60;48.60
19180;DHT22;9722;48.754;8.868;2023-08-20T15:53:56;34.50;48.90
19180;DHT22;9722;48.754;8.868;2023-08-20T15:57:16;34.30;48.90
19180;DHT22;9722;48.754;8.868;2023-08-20T16:00:36;34.20;49.10
19180;DHT22;9722;48.754;8.868;2023-08-20T16:03:58;34.00;49.50
19180;DHT22;9722;48.754;8.868;2023-08-20T16:07:18;33.90;49.90
19180;DHT22;9722;48.754;8.868;2023-08-20T16:10:39;33.80;50.10
19180;DHT22;9722;48.754;8.868;2023-08-20T16:13:59;33.70;50.20
19180;DHT22;9722;48.754;8.868;2023-08-20T16:17:20;33.60;50.10
19180;DHT22;9722;48.754;8.868;2023-08-20T16:20:40;33.50;50.10
19180;DHT22;9722;48.754;8.868;2023-08-20T16:24:01;33.30;50.30
19180;DHT22;9722;48.754;8.868;2023-08-20T16:27:22;33.30;50.90
19180;DHT22;9722;48.754;8.868;2023-08-20T16:30:43;33.10;51.20
19180;DHT22;9722;48.754;8.868;2023-08-20T16:34:06;33.10;51.50
19180;DHT22;9722;48.754;8.868;2023-08-20T16:37:27;33.20;51.90
19180;DHT22;9722;48.754;8.868;2023-08-20T16:40:47;33.30;51.90
19180;DHT22;9722;48.754;8.868;2023-08-20T16:44:08;33.40;51.70
19180;DHT22;9722;48.754;8.868;2023-08-20T16:47:29;33.50;51.40
19180;DHT22;9722;48.754;8.868;2023-08-20T16:50:49;33.60;51.20
19180;DHT22;9722;48.754;8.868;2023-08-20T16:54:10;33.70;51.80
19180;DHT22;9722;48.754;8.868;2023-08-20T16:57:30;33.60;51.20
19180;DHT22;9722;48.754;8.868;2023-08-20T17:00:51;33.60;51.00
19180;DHT22;9722;48.754;8.868;2023-08-20T17:04:11;33.60;51.20
19180;DHT22;9722;48.754;8.868;2023-08-20T17:07:32;33.50;51.30
19180;DHT22;9722;48.754;8.868;2023-08-20T17:10:52;33.50;51.40
19180;DHT22;9722;48.754;8.868;2023-08-20T17:14:13;33.30;51.60
19180;DHT22;9722;48.754;8.868;2023-08-20T17:17:33;33.20;51.90
19180;DHT22;9722;48.754;8.868;2023-08-20T17:20:54;33.00;52.40
19180;DHT22;9722;48.754;8.868;2023-08-20T17:24:14;32.90;52.60
19180;DHT22;9722;48.754;8.868;2023-08-20T17:27:38;32.80;53.10
19180;DHT22;9722;48.754;8.868;2023-08-20T17:31:02;32.60;53.50
19180;DHT22;9722;48.754;8.868;2023-08-20T17:34:23;32.50;54.10
19180;DHT22;9722;48.754;8.868;2023-08-20T17:37:43;32.40;54.60
19180;DHT22;9722;48.754;8.868;2023-08-20T17:41:04;32.30;54.70
19180;DHT22;9722;48.754;8.868;2023-08-20T17:44:25;32.20;55.30
19180;DHT22;9722;48.754;8.868;2023-08-20T17:47:46;32.00;55.80
19180;DHT22;9722;48.754;8.868;2023-08-20T17:51:06;31.90;55.90
19180;DHT22;9722;48.754;8.868;2023-08-20T17:54:27;31.70;56.10
19180;DHT22;9722;48.754;8.868;2023-08-20T17:57:47;31.50;56.30
19180;DHT22;9722;48.754;8.868;2023-08-20T18:01:08;31.40;56.70
19180;DHT22;9722;48.754;8.868;2023-08-20T18:04:28;31.20;56.90
19180;DHT22;9722;48.754;8.868;2023-08-20T18:07:49;31.00;57.50
19180;DHT22;9722;48.754;8.868;2023-08-20T18:11:10;30.80;57.90
19180;DHT22;9722;48.754;8.868;2023-08-20T18:14:31;30.60;58.50
19180;DHT22;9722;48.754;8.868;2023-08-20T18:17:52;30.30;58.90
19180;DHT22;9722;48.754;8.868;2023-08-20T18:21:12;30.10;59.30
19180;DHT22;9722;48.754;8.868;2023-08-20T18:24:33;29.90;59.80
19180;DHT22;9722;48.754;8.868;2023-08-20T18:27:53;29.70;60.40
19180;DHT22;9722;48.754;8.868;2023-08-20T18:31:14;29.50;61.60
19180;DHT22;9722;48.754;8.868;2023-08-20T18:34:34;29.30;61.30
19180;DHT22;9722;48.754;8.868;2023-08-20T18:37:55;29.20;61.90
19180;DHT22;9722;48.754;8.868;2023-08-20T18:41:16;29.00;63.10
19180;DHT22;9722;48.754;8.868;2023-08-20T18:44:38;28.80;62.80
19180;DHT22;9722;48.754;8.868;2023-08-20T18:47:58;28.60;62.70
19180;DHT22;9722;48.754;8.868;2023-08-20T18:51:21;28.50;63.00
19180;DHT22;9722;48.754;8.868;2023-08-20T18:54:42;28.30;63.80
19180;DHT22;9722;48.754;8.868;2023-08-20T18:58:03;28.20;64.50
19180;DHT22;9722;48.754;8.868;2023-08-20T19:01:24;28.10;64.90
19180;DHT22;9722;48.754;8.868;2023-08-20T19:04:44;28.00;65.20
19180;DHT22;9722;48.754;8.868;2023-08-20T19:08:05;27.90;65.50
19180;DHT22;9722;48.754;8.868;2023-08-20T19:11:25;27.70;65.60
19180;DHT22;9722;48.754;8.868;2023-08-20T19:14:46;27.60;66.20
19180;DHT22;9722;48.754;8.868;2023-08-20T19:18:06;27.40;66.90
19180;DHT22;9722;48.754;8.868;2023-08-20T19:21:27;27.40;67.80
19180;DHT22;9722;48.754;8.868;2023-08-20T19:24:47;27.30;68.30
19180;DHT22;9722;48.754;8.868;2023-08-20T19:28:09;27.10;69.10
19180;DHT22;9722;48.754;8.868;2023-08-20T19:31:31;27.10;69.90
19180;DHT22;9722;48.754;8.868;2023-08-20T19:34:52;27.00;70.50
19180;DHT22;9722;48.754;8.868;2023-08-20T19:38:13;26.90;71.20
19180;DHT22;9722;48.754;8.868;2023-08-20T19:41:34;26.80;71.80
19180;DHT22;9722;48.754;8.868;2023-08-20T19:44:54;26.70;72.30
19180;DHT22;9722;48.754;8.868;2023-08-20T19:48:15;26.60;72.80
19180;DHT22;9722;48.754;8.868;2023-08-20T19:51:36;26.50;73.70
19180;DHT22;9722;48.754;8.868;2023-08-20T19:54:56;26.40;74.00
19180;DHT22;9722;48.754;8.868;2023-08-20T19:58:17;26.30;74.90
19180;DHT22;9722;48.754;8.868;2023-08-20T20:01:52;26.20;75.60
19180;DHT22;9722;48.754;8.868;2023-08-20T20:05:13;26.10;76.60
19180;DHT22;9722;48.754;8.868;2023-08-20T20:08:34;26.00;77.20
19180;DHT22;9722;48.754;8.868;2023-08-20T20:11:54;25.90;77.80
19180;DHT22;9722;48.754;8.868;2023-08-20T20:15:15;25.80;78.30
19180;DHT22;9722;48.754;8.868;2023-08-20T20:18:35;25.70;79.00
19180;DHT22;9722;48.754;8.868;2023-08-20T20:21:56;25.60;79.70
19180;DHT22;9722;48.754;8.868;2023-08-20T20:25:16;25.60;80.50
19180;DHT22;9722;48.754;8.868;2023-08-20T20:28:37;25.50;81.00
19180;DHT22;9722;48.754;8.868;2023-08-20T20:31:59;25.40;81.70
19180;DHT22;9722;48.754;8.868;2023-08-20T20:35:19;25.30;82.50
19180;DHT22;9722;48.754;8.868;2023-08-20T20:38:40;25.20;84.30
19180;DHT22;9722;48.754;8.868;2023-08-20T20:42:01;25.00;84.70
19180;DHT22;9722;48.754;8.868;2023-08-20T20:45:23;24.90;85.30
19180;DHT22;9722;48.754;8.868;2023-08-20T20:48:43;24.70;86.10
19180;DHT22;9722;48.754;8.868;2023-08-20T20:52:04;24.70;87.00
19180;DHT22;9722;48.754;8.868;2023-08-20T20:55:25;24.60;87.50
19180;DHT22;9722;48.754;8.868;2023-08-20T20:58:45;24.50;88.40
19180;DHT22;9722;48.754;8.868;2023-08-20T21:02:06;24.50;89.00
19180;DHT22;9722;48.754;8.868;2023-08-20T21:05:26;24.40;89.60
19180;DHT22;9722;48.754;8.868;2023-08-20T21:08:47;24.40;90.00
19180;DHT22;9722;48.754;8.868;2023-08-20T21:12:08;24.40;90.40
19180;DHT22;9722;48.754;8.868;2023-08-20T21:15:29;24.40;90.50
19180;DHT22;9722;48.754;8.868;2023-08-20T21:18:50;24.40;90.90
19180;DHT22;9722;48.754;8.868;2023-08-20T21:22:11;24.30;91.00
19180;DHT22;9722;48.754;8.868;2023-08-20T21:25:33;24.30;91.30
19180;DHT22;9722;48.754;8.868;2023-08-20T21:28:54;24.20;91.50
19180;DHT22;9722;48.754;8.868;2023-08-20T21:32:14;24.20;91.60
19180;DHT22;9722;48.754;8.868;2023-08-20T21:35:35;24.20;91.80